sensor_id;sensor_type;location;lat;lon;timestamp;pressure;altitude;pressure_sealevel;temperature;humidity
69214;BME280;56325;47.030;18.518;2022-08-19T00:00:41;99763.16;;;26.88;43.92
69214;BME280;56325;47.030;18.518;2022-08-19T00:03:16;99762.88;;;26.84;45.20
69214;BME280;56325;47.030;18.518;2022-08-19T00:05:50;99760.62;;;26.83;44.26
69214;BME280;56325;47.030;18.518;2022-08-19T00:08:24;99756.03;;;26.87;44.23
69214;BME280;56325;47.030;18.518;2022-08-19T00:11:00;99755.09;;;26.75;44.28
69214;BME280;56325;47.030;18.518;2022-08-19T00:13:34;99742.50;;;26.76;44.66
69214;BME280;56325;47.030;18.518;2022-08-19T00:16:09;99752.44;;;26.77;45.33
69214;BME280;56325;47.030;18.518;2022-08-19T00:18:44;99743.56;;;26.81;44.86
69214;BME280;56325;47.030;18.518;2022-08-19T00:21:18;99745.72;;;26.72;45.13
69214;BME280;56325;47.030;18.518;2022-08-19T00:23:53;99753.34;;;26.80;44.55
69214;BME280;56325;47.030;18.518;2022-08-19T00:26:28;99734.78;;;26.76;44.40
69214;BME280;56325;47.030;18.518;2022-08-19T00:29:04;99730.62;;;26.77;44.81
69214;BME280;56325;47.030;18.518;2022-08-19T00:31:39;99736.00;;;26.83;44.40
69214;BME280;56325;47.030;18.518;2022-08-19T00:34:14;99738.28;;;26.67;45.13
69214;BME280;56325;47.030;18.518;2022-08-19T00:36:49;99744.06;;;26.69;45.24
69214;BME280;56325;47.030;18.518;2022-08-19T00:39:23;99731.66;;;26.55;45.63
69214;BME280;56325;47.030;18.518;2022-08-19T00:41:59;99735.06;;;26.54;45.84
69214;BME280;56325;47.030;18.518;2022-08-19T00:44:33;99732.16;;;26.44;46.07
69214;BME280;56325;47.030;18.518;2022-08-19T00:47:08;99734.37;;;26.28;46.78
69214;BME280;56325;47.030;18.518;2022-08-19T00:49:48;99741.28;;;26.18;47.36
69214;BME280;56325;47.030;18.518;2022-08-19T00:52:27;99739.28;;;26.10;47.71
69214;BME280;56325;47.030;18.518;2022-08-19T00:55:04;99730.25;;;26.12;47.46
69214;BME280;56325;47.030;18.518;2022-08-19T00:57:44;99730.09;;;26.10;47.95
69214;BME280;56325;47.030;18.518;2022-08-19T01:00:21;99723.19;;;26.21;47.42
69214;BME280;56325;47.030;18.518;2022-08-19T01:02:56;99732.00;;;26.25;47.79
69214;BME280;56325;47.030;18.518;2022-08-19T01:05:31;99722.53;;;26.30;47.83
69214;BME280;56325;47.030;18.518;2022-08-19T01:08:06;99727.69;;;26.41;47.32
69214;BME280;56325;47.030;18.518;2022-08-19T01:10:44;99723.22;;;26.38;47.41
69214;BME280;56325;47.030;18.518;2022-08-19T01:13:24;99717.16;;;26.41;47.03
69214;BME280;56325;47.030;18.518;2022-08-19T01:16:17;99716.41;;;26.41;47.39
69214;BME280;56325;47.030;18.518;2022-08-19T01:18:52;99718.50;;;26.40;47.68
69214;BME280;56325;47.030;18.518;2022-08-19T01:21:32;99721.91;;;26.39;47.80
69214;BME280;56325;47.030;18.518;2022-08-19T01:24:10;99713.91;;;26.28;47.62
69214;BME280;56325;47.030;18.518;2022-08-19T01:26:45;99717.97;;;26.17;47.40
69214;BME280;56325;47.030;18.518;2022-08-19T01:29:20;99717.81;;;26.15;47.15
69214;BME280;56325;47.030;18.518;2022-08-19T01:31:57;99717.16;;;26.07;47.80
69214;BME280;56325;47.030;18.518;2022-08-19T01:34:32;99715.25;;;26.09;47.49
69214;BME280;56325;47.030;18.518;2022-08-19T01:37:08;99706.13;;;26.01;47.46
69214;BME280;56325;47.030;18.518;2022-08-19T01:39:45;99709.63;;;25.92;47.95
69214;BME280;56325;47.030;18.518;2022-08-19T01:42:20;99702.34;;;25.89;47.91
69214;BME280;56325;47.030;18.518;2022-08-19T01:45:02;99693.88;;;25.72;48.70
69214;BME280;56325;47.030;18.518;2022-08-19T01:47:37;99687.09;;;25.75;48.90
69214;BME280;56325;47.030;18.518;2022-08-19T01:50:12;99686.19;;;25.72;48.56
69214;BME280;56325;47.030;18.518;2022-08-19T01:52:47;99687.53;;;25.64;49.38
69214;BME280;56325;47.030;18.518;2022-08-19T01:55:38;99685.19;;;25.53;49.44
69214;BME280;56325;47.030;18.518;2022-08-19T01:58:17;99687.38;;;25.62;49.79
69214;BME280;56325;47.030;18.518;2022-08-19T02:00:52;99681.91;;;25.64;49.77
69214;BME280;56325;47.030;18.518;2022-08-19T02:03:27;99676.41;;;25.73;49.73
69214;BME280;56325;47.030;18.518;2022-08-19T02:06:02;99671.34;;;25.72;48.34
69214;BME280;56325;47.030;18.518;2022-08-19T02:08:39;99676.00;;;25.77;49.56
69214;BME280;56325;47.030;18.518;2022-08-19T02:11:21;99684.94;;;25.83;49.12
69214;BME280;56325;47.030;18.518;2022-08-19T02:13:57;99697.47;;;25.90;48.21
69214;BME280;56325;47.030;18.518;2022-08-19T02:16:32;99702.34;;;25.89;47.95
69214;BME280;56325;47.030;18.518;2022-08-19T02:19:06;99713.19;;;25.93;48.48
69214;BME280;56325;47.030;18.518;2022-08-19T02:21:41;99712.78;;;25.96;48.43
69214;BME280;56325;47.030;18.518;2022-08-19T02:24:16;99707.16;;;25.96;47.96
69214;BME280;56325;47.030;18.518;2022-08-19T02:26:51;99709.97;;;25.96;48.59
69214;BME280;56325;47.030;18.518;2022-08-19T02:29:26;99706.81;;;25.92;48.63
69214;BME280;56325;47.030;18.518;2022-08-19T02:32:00;99713.09;;;26.00;48.56
69214;BME280;56325;47.030;18.518;2022-08-19T02:34:35;99720.00;;;25.90;48.90
69214;BME280;56325;47.030;18.518;2022-08-19T02:37:09;99704.91;;;25.95;49.00
69214;BME280;56325;47.030;18.518;2022-08-19T02:40:07;99717.91;;;25.90;48.86
69214;BME280;56325;47.030;18.518;2022-08-19T02:42:45;99712.44;;;25.92;48.38
69214;BME280;56325;47.030;18.518;2022-08-19T02:45:20;99709.81;;;25.94;48.73
69214;BME280;56325;47.030;18.518;2022-08-19T02:47:54;99714.69;;;25.94;48.31
69214;BME280;56325;47.030;18.518;2022-08-19T02:50:30;99712.63;;;25.94;48.53
69214;BME280;56325;47.030;18.518;2022-08-19T02:53:04;99714.19;;;25.88;48.57
69214;BME280;56325;47.030;18.518;2022-08-19T02:55:43;99710.87;;;25.82;49.22
69214;BME280;56325;47.030;18.518;2022-08-19T02:58:20;99708.56;;;25.88;48.61
69214;BME280;56325;47.030;18.518;2022-08-19T03:00:57;99710.87;;;25.82;48.93
69214;BME280;56325;47.030;18.518;2022-08-19T03:03:31;99713.34;;;25.77;49.38
69214;BME280;56325;47.030;18.518;2022-08-19T03:06:08;99724.34;;;25.66;49.69
69214;BME280;56325;47.030;18.518;2022-08-19T03:08:44;99718.87;;;25.43;49.70
69214;BME280;56325;47.030;18.518;2022-08-19T03:11:22;99722.84;;;25.40;49.61
69214;BME280;56325;47.030;18.518;2022-08-19T03:13:58;99723.94;;;25.44;49.65
69214;BME280;56325;47.030;18.518;2022-08-19T03:16:35;99724.00;;;25.37;50.28
69214;BME280;56325;47.030;18.518;2022-08-19T03:19:15;99732.44;;;25.37;49.86
69214;BME280;56325;47.030;18.518;2022-08-19T03:21:51;99749.91;;;25.35;49.53
69214;BME280;56325;47.030;18.518;2022-08-19T03:24:25;99751.84;;;25.25;49.84
69214;BME280;56325;47.030;18.518;2022-08-19T03:26:59;99759.94;;;25.21;50.31
69214;BME280;56325;47.030;18.518;2022-08-19T03:29:36;99754.47;;;25.23;50.49
69214;BME280;56325;47.030;18.518;2022-08-19T03:32:15;99754.25;;;25.29;50.34
69214;BME280;56325;47.030;18.518;2022-08-19T03:35:05;99753.28;;;25.34;50.13
69214;BME280;56325;47.030;18.518;2022-08-19T03:37:39;99752.47;;;25.16;50.32
69214;BME280;56325;47.030;18.518;2022-08-19T03:40:13;99753.50;;;25.03;50.84
69214;BME280;56325;47.030;18.518;2022-08-19T03:42:48;99757.69;;;24.87;51.36
69214;BME280;56325;47.030;18.518;2022-08-19T03:45:24;99743.56;;;25.02;50.96
69214;BME280;56325;47.030;18.518;2022-08-19T03:48:00;99745.69;;;25.19;50.81
69214;BME280;56325;47.030;18.518;2022-08-19T03:50:38;99736.09;;;25.22;50.69
69214;BME280;56325;47.030;18.518;2022-08-19T03:53:13;99743.41;;;25.25;50.49
69214;BME280;56325;47.030;18.518;2022-08-19T03:55:47;99739.66;;;25.23;50.61
69214;BME280;56325;47.030;18.518;2022-08-19T03:58:22;99731.28;;;25.15;50.72
69214;BME280;56325;47.030;18.518;2022-08-19T04:00:58;99741.03;;;25.14;50.66
69214;BME280;56325;47.030;18.518;2022-08-19T04:03:32;99754.78;;;25.10;50.98
69214;BME280;56325;47.030;18.518;2022-08-19T04:06:11;99754.78;;;25.10;50.92
69214;BME280;56325;47.030;18.518;2022-08-19T04:08:46;99756.44;;;25.13;50.95
69214;BME280;56325;47.030;18.518;2022-08-19T04:11:23;99763.53;;;25.14;51.07
69214;BME280;56325;47.030;18.518;2022-08-19T04:14:18;99757.78;;;25.12;51.18
69214;BME280;56325;47.030;18.518;2022-08-19T04:16:54;99775.09;;;25.01;51.50
69214;BME280;56325;47.030;18.518;2022-08-19T04:19:30;99766.03;;;25.10;51.41
69214;BME280;56325;47.030;18.518;2022-08-19T04:22:04;99773.47;;;25.15;51.28
69214;BME280;56325;47.030;18.518;2022-08-19T04:24:39;99763.22;;;25.10;51.55
69214;BME280;56325;47.030;18.518;2022-08-19T04:27:13;99762.56;;;25.19;51.29
69214;BME280;56325;47.030;18.518;2022-08-19T04:29:49;99767.09;;;25.14;51.43
69214;BME280;56325;47.030;18.518;2022-08-19T04:32:24;99778.88;;;25.21;51.43
69214;BME280;56325;47.030;18.518;2022-08-19T04:34:59;99777.16;;;25.25;51.37
69214;BME280;56325;47.030;18.518;2022-08-19T04:37:51;99779.19;;;25.32;51.25
69214;BME280;56325;47.030;18.518;2022-08-19T04:40:25;99784.59;;;25.38;51.24
69214;BME280;56325;47.030;18.518;2022-08-19T04:43:17;99786.84;;;25.39;51.32
69214;BME280;56325;47.030;18.518;2022-08-19T04:45:52;99784.38;;;25.43;51.27
69214;BME280;56325;47.030;18.518;2022-08-19T04:48:34;99784.31;;;25.51;51.17
69214;BME280;56325;47.030;18.518;2022-08-19T04:51:16;99783.72;;;25.53;51.24
69214;BME280;56325;47.030;18.518;2022-08-19T04:53:50;99785.97;;;25.54;51.18
69214;BME280;56325;47.030;18.518;2022-08-19T04:56:25;99794.75;;;25.66;50.96
69214;BME280;56325;47.030;18.518;2022-08-19T04:59:00;99793.75;;;25.71;50.93
69214;BME280;56325;47.030;18.518;2022-08-19T05:01:37;99791.12;;;25.73;50.93
69214;BME280;56325;47.030;18.518;2022-08-19T05:04:12;99790.88;;;25.78;50.80
69214;BME280;56325;47.030;18.518;2022-08-19T05:06:53;99774.84;;;25.89;50.68
69214;BME280;56325;47.030;18.518;2022-08-19T05:09:33;99777.81;;;25.91;50.89
69214;BME280;56325;47.030;18.518;2022-08-19T05:12:28;99775.00;;;25.91;50.74
69214;BME280;56325;47.030;18.518;2022-08-19T05:15:04;99766.97;;;25.87;50.96
69214;BME280;56325;47.030;18.518;2022-08-19T05:17:39;99757.19;;;25.63;51.80
69214;BME280;56325;47.030;18.518;2022-08-19T05:20:37;99755.66;;;25.70;51.73
69214;BME280;56325;47.030;18.518;2022-08-19T05:23:29;99769.28;;;25.81;51.48
69214;BME280;56325;47.030;18.518;2022-08-19T05:26:04;99773.88;;;25.69;51.94
69214;BME280;56325;47.030;18.518;2022-08-19T05:28:39;99772.91;;;25.74;51.84
69214;BME280;56325;47.030;18.518;2022-08-19T05:31:13;99772.56;;;25.70;51.83
69214;BME280;56325;47.030;18.518;2022-08-19T05:33:47;99774.97;;;25.73;51.96
69214;BME280;56325;47.030;18.518;2022-08-19T05:36:24;99778.94;;;25.70;52.15
69214;BME280;56325;47.030;18.518;2022-08-19T05:38:58;99767.72;;;25.88;51.72
69214;BME280;56325;47.030;18.518;2022-08-19T05:41:33;99771.69;;;25.85;51.67
69214;BME280;56325;47.030;18.518;2022-08-19T05:44:07;99761.31;;;25.87;51.56
69214;BME280;56325;47.030;18.518;2022-08-19T05:46:43;99747.75;;;25.93;51.62
69214;BME280;56325;47.030;18.518;2022-08-19T05:49:22;99741.78;;;25.89;51.69
69214;BME280;56325;47.030;18.518;2022-08-19T05:52:01;99738.97;;;25.89;51.66
69214;BME280;56325;47.030;18.518;2022-08-19T05:54:37;99737.97;;;25.94;51.48
69214;BME280;56325;47.030;18.518;2022-08-19T05:57:13;99735.50;;;25.98;51.66
69214;BME280;56325;47.030;18.518;2022-08-19T05:59:48;99745.66;;;26.11;50.72
69214;BME280;56325;47.030;18.518;2022-08-19T06:02:29;99742.34;;;26.05;50.91
69214;BME280;56325;47.030;18.518;2022-08-19T06:05:05;99748.81;;;26.15;50.66
69214;BME280;56325;47.030;18.518;2022-08-19T06:07:43;99748.44;;;26.36;50.06
69214;BME280;56325;47.030;18.518;2022-08-19T06:10:17;99753.31;;;26.35;49.98
69214;BME280;56325;47.030;18.518;2022-08-19T06:12:51;99757.53;;;26.44;49.89
69214;BME280;56325;47.030;18.518;2022-08-19T06:15:26;99757.03;;;26.55;49.66
69214;BME280;56325;47.030;18.518;2022-08-19T06:18:00;99766.91;;;26.64;49.50
69214;BME280;56325;47.030;18.518;2022-08-19T06:20:35;99769.62;;;26.71;49.61
69214;BME280;56325;47.030;18.518;2022-08-19T06:23:28;99787.69;;;26.86;49.28
69214;BME280;56325;47.030;18.518;2022-08-19T06:26:03;99800.75;;;26.91;49.03
69214;BME280;56325;47.030;18.518;2022-08-19T06:28:37;99803.41;;;27.06;48.96
69214;BME280;56325;47.030;18.518;2022-08-19T06:31:17;99809.44;;;27.20;48.59
69214;BME280;56325;47.030;18.518;2022-08-19T06:33:53;99813.31;;;27.51;48.07
69214;BME280;56325;47.030;18.518;2022-08-19T06:36:29;99821.25;;;27.62;47.88
69214;BME280;56325;47.030;18.518;2022-08-19T06:39:13;99823.22;;;27.69;47.25
69214;BME280;56325;47.030;18.518;2022-08-19T06:41:49;99807.16;;;27.82;46.75
69214;BME280;56325;47.030;18.518;2022-08-19T06:44:30;99810.50;;;27.97;46.73
69214;BME280;56325;47.030;18.518;2022-08-19T06:47:18;99809.91;;;28.08;46.69
69214;BME280;56325;47.030;18.518;2022-08-19T06:50:00;99798.06;;;28.39;45.56
69214;BME280;56325;47.030;18.518;2022-08-19T06:52:37;99803.13;;;28.41;44.37
69214;BME280;56325;47.030;18.518;2022-08-19T06:55:14;99812.50;;;28.62;43.79
69214;BME280;56325;47.030;18.518;2022-08-19T06:57:50;99800.72;;;28.76;43.28
69214;BME280;56325;47.030;18.518;2022-08-19T07:00:26;99809.66;;;28.82;43.03
69214;BME280;56325;47.030;18.518;2022-08-19T07:03:01;99805.94;;;28.98;43.03
69214;BME280;56325;47.030;18.518;2022-08-19T07:05:41;99813.22;;;29.11;43.00
69214;BME280;56325;47.030;18.518;2022-08-19T07:08:17;99808.88;;;29.20;42.37
69214;BME280;56325;47.030;18.518;2022-08-19T07:10:53;99800.81;;;29.26;42.46
69214;BME280;56325;47.030;18.518;2022-08-19T07:13:28;99809.72;;;29.42;42.00
69214;BME280;56325;47.030;18.518;2022-08-19T07:16:05;99812.59;;;29.63;41.95
69214;BME280;56325;47.030;18.518;2022-08-19T07:18:41;99804.00;;;29.82;41.48
69214;BME280;56325;47.030;18.518;2022-08-19T07:21:19;99799.59;;;30.00;41.15
69214;BME280;56325;47.030;18.518;2022-08-19T07:23:55;99804.94;;;30.06;40.28
69214;BME280;56325;47.030;18.518;2022-08-19T07:26:41;99802.03;;;30.16;39.79
69214;BME280;56325;47.030;18.518;2022-08-19T07:29:16;99805.81;;;30.09;40.23
69214;BME280;56325;47.030;18.518;2022-08-19T07:31:50;99810.53;;;30.16;40.02
69214;BME280;56325;47.030;18.518;2022-08-19T07:34:27;99809.94;;;30.17;39.64
69214;BME280;56325;47.030;18.518;2022-08-19T07:37:02;99816.34;;;30.18;39.49
69214;BME280;56325;47.030;18.518;2022-08-19T07:39:37;99808.03;;;30.31;39.25
69214;BME280;56325;47.030;18.518;2022-08-19T07:42:13;99813.22;;;30.35;39.36
69214;BME280;56325;47.030;18.518;2022-08-19T07:44:48;99821.38;;;30.41;39.10
69214;BME280;56325;47.030;18.518;2022-08-19T07:47:22;99816.59;;;30.43;39.62
69214;BME280;56325;47.030;18.518;2022-08-19T07:50:18;99825.22;;;30.45;38.54
69214;BME280;56325;47.030;18.518;2022-08-19T07:52:53;99805.41;;;30.57;38.35
69214;BME280;56325;47.030;18.518;2022-08-19T07:55:27;99808.47;;;30.49;38.55
69214;BME280;56325;47.030;18.518;2022-08-19T07:58:19;99801.66;;;30.43;38.59
69214;BME280;56325;47.030;18.518;2022-08-19T08:00:54;99806.03;;;30.55;38.29
69214;BME280;56325;47.030;18.518;2022-08-19T08:03:29;99802.53;;;30.67;37.78
69214;BME280;56325;47.030;18.518;2022-08-19T08:06:21;99801.19;;;30.68;37.64
69214;BME280;56325;47.030;18.518;2022-08-19T08:09:16;99803.53;;;30.71;37.66
69214;BME280;56325;47.030;18.518;2022-08-19T08:12:01;99799.62;;;30.88;37.62
69214;BME280;56325;47.030;18.518;2022-08-19T08:14:58;99803.13;;;30.98;37.55
69214;BME280;56325;47.030;18.518;2022-08-19T08:17:43;99796.59;;;31.07;37.64
69214;BME280;56325;47.030;18.518;2022-08-19T08:20:23;99798.00;;;31.18;37.30
69214;BME280;56325;47.030;18.518;2022-08-19T08:22:58;99800.72;;;31.27;37.05
69214;BME280;56325;47.030;18.518;2022-08-19T08:25:50;99809.59;;;31.22;36.91
69214;BME280;56325;47.030;18.518;2022-08-19T08:28:26;99799.00;;;31.46;36.47
69214;BME280;56325;47.030;18.518;2022-08-19T08:31:03;99799.28;;;31.73;36.18
69214;BME280;56325;47.030;18.518;2022-08-19T08:33:41;99800.75;;;31.86;35.70
69214;BME280;56325;47.030;18.518;2022-08-19T08:36:17;99796.97;;;32.07;35.89
69214;BME280;56325;47.030;18.518;2022-08-19T08:38:51;99787.06;;;32.19;34.74
69214;BME280;56325;47.030;18.518;2022-08-19T08:41:29;99777.53;;;32.26;34.90
69214;BME280;56325;47.030;18.518;2022-08-19T08:44:05;99776.88;;;32.40;34.75
69214;BME280;56325;47.030;18.518;2022-08-19T08:46:53;99765.16;;;32.59;34.37
69214;BME280;56325;47.030;18.518;2022-08-19T08:49:35;99763.84;;;32.74;33.88
69214;BME280;56325;47.030;18.518;2022-08-19T08:52:15;99759.59;;;32.86;33.25
69214;BME280;56325;47.030;18.518;2022-08-19T08:54:54;99755.50;;;33.03;33.13
69214;BME280;56325;47.030;18.518;2022-08-19T08:57:33;99755.09;;;33.09;32.86
69214;BME280;56325;47.030;18.518;2022-08-19T09:00:20;99758.56;;;33.07;32.76
69214;BME280;56325;47.030;18.518;2022-08-19T09:02:58;99759.28;;;33.47;32.51
69214;BME280;56325;47.030;18.518;2022-08-19T09:05:39;99753.69;;;33.63;31.82
69214;BME280;56325;47.030;18.518;2022-08-19T09:08:30;99746.94;;;33.83;31.78
69214;BME280;56325;47.030;18.518;2022-08-19T09:11:09;99742.34;;;34.06;31.45
69214;BME280;56325;47.030;18.518;2022-08-19T09:14:06;99739.59;;;34.08;31.46
69214;BME280;56325;47.030;18.518;2022-08-19T09:17:04;99735.34;;;34.23;30.96
69214;BME280;56325;47.030;18.518;2022-08-19T09:19:50;99739.78;;;34.12;30.59
69214;BME280;56325;47.030;18.518;2022-08-19T09:22:24;99735.34;;;34.23;30.46
69214;BME280;56325;47.030;18.518;2022-08-19T09:25:00;99743.88;;;34.36;30.93
69214;BME280;56325;47.030;18.518;2022-08-19T09:27:36;99739.06;;;34.70;30.65
69214;BME280;56325;47.030;18.518;2022-08-19T09:30:27;99746.97;;;34.72;29.80
69214;BME280;56325;47.030;18.518;2022-08-19T09:33:02;99742.06;;;34.88;29.94
69214;BME280;56325;47.030;18.518;2022-08-19T09:35:38;99745.16;;;34.78;29.92
69214;BME280;56325;47.030;18.518;2022-08-19T09:38:24;99734.97;;;35.05;29.14
69214;BME280;56325;47.030;18.518;2022-08-19T09:41:03;99739.41;;;35.24;28.86
69214;BME280;56325;47.030;18.518;2022-08-19T09:43:39;99736.84;;;35.45;28.56
69214;BME280;56325;47.030;18.518;2022-08-19T09:46:20;99736.28;;;35.49;28.28
69214;BME280;56325;47.030;18.518;2022-08-19T09:48:57;99732.69;;;35.48;27.54
69214;BME280;56325;47.030;18.518;2022-08-19T09:51:39;99727.78;;;35.51;27.84
69214;BME280;56325;47.030;18.518;2022-08-19T09:54:14;99733.16;;;35.43;27.99
69214;BME280;56325;47.030;18.518;2022-08-19T09:56:57;99727.13;;;35.53;28.33
69214;BME280;56325;47.030;18.518;2022-08-19T09:59:36;99724.94;;;35.85;28.09
69214;BME280;56325;47.030;18.518;2022-08-19T10:02:11;99724.88;;;36.00;27.76
69214;BME280;56325;47.030;18.518;2022-08-19T10:04:54;99725.53;;;35.99;27.50
69214;BME280;56325;47.030;18.518;2022-08-19T10:07:55;99726.13;;;36.13;27.17
69214;BME280;56325;47.030;18.518;2022-08-19T10:10:35;99717.28;;;36.07;26.94
69214;BME280;56325;47.030;18.518;2022-08-19T10:13:16;99722.44;;;36.10;26.75
69214;BME280;56325;47.030;18.518;2022-08-19T10:15:53;99724.00;;;36.13;26.54
69214;BME280;56325;47.030;18.518;2022-08-19T10:18:27;99715.91;;;36.08;26.15
69214;BME280;56325;47.030;18.518;2022-08-19T10:21:06;99711.72;;;36.11;26.20
69214;BME280;56325;47.030;18.518;2022-08-19T10:23:47;99712.22;;;36.23;26.15
69214;BME280;56325;47.030;18.518;2022-08-19T10:26:27;99715.25;;;36.45;26.00
69214;BME280;56325;47.030;18.518;2022-08-19T10:29:03;99713.78;;;36.26;25.28
69214;BME280;56325;47.030;18.518;2022-08-19T10:31:41;99708.53;;;36.21;26.17
69214;BME280;56325;47.030;18.518;2022-08-19T10:34:35;99713.78;;;36.26;25.67
69214;BME280;56325;47.030;18.518;2022-08-19T10:37:20;99715.16;;;36.25;25.86
69214;BME280;56325;47.030;18.518;2022-08-19T10:40:06;99718.94;;;36.48;25.52
69214;BME280;56325;47.030;18.518;2022-08-19T10:42:43;99716.72;;;36.46;25.54
69214;BME280;56325;47.030;18.518;2022-08-19T10:45:18;99720.25;;;36.44;25.80
69214;BME280;56325;47.030;18.518;2022-08-19T10:47:57;99722.44;;;36.64;26.14
69214;BME280;56325;47.030;18.518;2022-08-19T10:50:31;99709.69;;;37.04;25.58
69214;BME280;56325;47.030;18.518;2022-08-19T10:53:23;99714.00;;;36.68;25.46
69214;BME280;56325;47.030;18.518;2022-08-19T10:55:59;99720.31;;;36.47;25.88
69214;BME280;56325;47.030;18.518;2022-08-19T10:58:51;99719.72;;;36.68;25.99
69214;BME280;56325;47.030;18.518;2022-08-19T11:01:26;99717.34;;;36.62;25.64
69214;BME280;56325;47.030;18.518;2022-08-19T11:04:03;99711.81;;;36.49;26.06
69214;BME280;56325;47.030;18.518;2022-08-19T11:06:41;99716.72;;;36.46;25.95
69214;BME280;56325;47.030;18.518;2022-08-19T11:09:18;99711.03;;;36.84;25.97
69214;BME280;56325;47.030;18.518;2022-08-19T11:11:54;99717.47;;;37.02;25.62
69214;BME280;56325;47.030;18.518;2022-08-19T11:14:37;99715.03;;;36.94;25.60
69214;BME280;56325;47.030;18.518;2022-08-19T11:17:13;99709.09;;;37.08;25.55
69214;BME280;56325;47.030;18.518;2022-08-19T11:19:48;99701.91;;;37.27;25.12
69214;BME280;56325;47.030;18.518;2022-08-19T11:22:23;99713.22;;;37.42;25.21
69214;BME280;56325;47.030;18.518;2022-08-19T11:25:10;99708.25;;;37.23;25.14
69214;BME280;56325;47.030;18.518;2022-08-19T11:27:46;99707.31;;;36.99;24.45
69214;BME280;56325;47.030;18.518;2022-08-19T11:30:24;99717.44;;;36.64;25.40
69214;BME280;56325;47.030;18.518;2022-08-19T11:32:58;99720.72;;;36.57;25.00
69214;BME280;56325;47.030;18.518;2022-08-19T11:35:33;99724.97;;;36.56;25.31
69214;BME280;56325;47.030;18.518;2022-08-19T11:38:07;99722.28;;;36.24;25.50
69214;BME280;56325;47.030;18.518;2022-08-19T11:40:42;99723.75;;;36.07;25.12
69214;BME280;56325;47.030;18.518;2022-08-19T11:43:18;99724.47;;;36.08;25.78
69214;BME280;56325;47.030;18.518;2022-08-19T11:45:53;99729.53;;;35.92;25.78
69214;BME280;56325;47.030;18.518;2022-08-19T11:48:27;99754.47;;;35.73;27.16
69214;BME280;56325;47.030;18.518;2022-08-19T11:51:05;99748.16;;;35.12;29.98
69214;BME280;56325;47.030;18.518;2022-08-19T11:53:39;99753.97;;;34.53;30.62
69214;BME280;56325;47.030;18.518;2022-08-19T11:56:18;99760.62;;;34.14;31.22
69214;BME280;56325;47.030;18.518;2022-08-19T11:58:54;99762.31;;;34.06;30.56
69214;BME280;56325;47.030;18.518;2022-08-19T12:01:30;99773.13;;;33.94;30.98
69214;BME280;56325;47.030;18.518;2022-08-19T12:04:05;99779.34;;;33.76;31.92
69214;BME280;56325;47.030;18.518;2022-08-19T12:06:40;99778.50;;;33.33;35.62
69214;BME280;56325;47.030;18.518;2022-08-19T12:22:13;99779.03;;;33.98;34.44
69214;BME280;56325;47.030;18.518;2022-08-19T12:24:48;99779.03;;;33.98;34.44
69214;BME280;56325;47.030;18.518;2022-08-19T12:56:15;99799.53;;;33.67;28.48
69214;BME280;56325;47.030;18.518;2022-08-19T13:14:40;99836.00;;;33.04;29.37
69214;BME280;56325;47.030;18.518;2022-08-19T13:17:16;99836.00;;;33.04;29.37
69214;BME280;56325;47.030;18.518;2022-08-19T13:19:50;99835.78;;;32.37;30.13
69214;BME280;56325;47.030;18.518;2022-08-19T13:22:25;99841.34;;;32.35;30.69
69214;BME280;56325;47.030;18.518;2022-08-19T13:24:59;99834.06;;;32.32;31.07
69214;BME280;56325;47.030;18.518;2022-08-19T13:27:38;99837.66;;;32.21;32.96
69214;BME280;56325;47.030;18.518;2022-08-19T13:30:16;99827.94;;;31.89;33.39
69214;BME280;56325;47.030;18.518;2022-08-19T13:33:12;99815.94;;;32.02;33.61
69214;BME280;56325;47.030;18.518;2022-08-19T13:35:49;99817.31;;;32.01;33.44
69214;BME280;56325;47.030;18.518;2022-08-19T13:38:24;99805.34;;;31.79;33.67
69214;BME280;56325;47.030;18.518;2022-08-19T13:41:04;99804.81;;;31.59;31.53
69214;BME280;56325;47.030;18.518;2022-08-19T13:43:44;99809.87;;;31.61;31.38
69214;BME280;56325;47.030;18.518;2022-08-19T13:46:20;99789.88;;;31.82;31.00
69214;BME280;56325;47.030;18.518;2022-08-19T13:48:55;99783.47;;;31.70;30.58
69214;BME280;56325;47.030;18.518;2022-08-19T13:51:29;99780.97;;;31.76;30.36
69214;BME280;56325;47.030;18.518;2022-08-19T13:54:04;99765.03;;;31.71;30.42
69214;BME280;56325;47.030;18.518;2022-08-19T13:56:43;99760.53;;;32.03;29.93
69214;BME280;56325;47.030;18.518;2022-08-19T13:59:18;99753.94;;;32.24;29.64
69214;BME280;56325;47.030;18.518;2022-08-19T14:01:57;99747.91;;;32.43;29.51
69214;BME280;56325;47.030;18.518;2022-08-19T14:04:32;99747.13;;;32.54;29.18
69214;BME280;56325;47.030;18.518;2022-08-19T14:07:06;99753.78;;;32.59;29.05
69214;BME280;56325;47.030;18.518;2022-08-19T14:09:42;99753.50;;;32.67;29.00
69214;BME280;56325;47.030;18.518;2022-08-19T14:12:21;99755.88;;;32.33;29.27
69214;BME280;56325;47.030;18.518;2022-08-19T14:15:02;99761.84;;;32.14;29.42
69214;BME280;56325;47.030;18.518;2022-08-19T14:17:39;99775.03;;;31.96;29.78
69214;BME280;56325;47.030;18.518;2022-08-19T14:20:14;99782.72;;;31.81;29.86
69214;BME280;56325;47.030;18.518;2022-08-19T14:22:50;99765.53;;;31.56;30.20
69214;BME280;56325;47.030;18.518;2022-08-19T14:25:28;99780.34;;;31.54;30.51
69214;BME280;56325;47.030;18.518;2022-08-19T14:28:03;99793.81;;;31.54;30.78
69214;BME280;56325;47.030;18.518;2022-08-19T14:30:38;99804.94;;;31.50;31.12
69214;BME280;56325;47.030;18.518;2022-08-19T14:33:13;99809.38;;;31.53;31.10
69214;BME280;56325;47.030;18.518;2022-08-19T14:35:48;99828.16;;;31.35;31.60
69214;BME280;56325;47.030;18.518;2022-08-19T14:38:23;99828.88;;;31.23;31.60
69214;BME280;56325;47.030;18.518;2022-08-19T14:41:09;99838.63;;;31.32;31.37
69214;BME280;56325;47.030;18.518;2022-08-19T14:43:44;99849.13;;;31.18;31.81